createdAt,value
2022-10-31T00:01:48.208Z,102123.38
2022-10-31T00:04:18.346Z,102118.41
2022-10-31T00:06:48.384Z,102120.80
2022-10-31T00:09:18.117Z,102119.48
2022-10-31T00:11:47.977Z,102119.05
2022-10-31T00:14:17.409Z,102119.05
2022-10-31T00:16:47.181Z,102118.80
2022-10-31T00:19:16.978Z,102122.91
2022-10-31T00:21:46.701Z,102122.31
2022-10-31T00:24:16.847Z,102124.32
2022-10-31T00:26:46.565Z,102128.79
2022-10-31T00:29:16.263Z,102128.79
2022-10-31T00:31:45.750Z,102124.47
2022-10-31T00:34:15.448Z,102122.36
2022-10-31T00:36:45.216Z,102123.73
2022-10-31T00:39:16.023Z,102119.91
2022-10-31T00:41:45.785Z,102118.16
2022-10-31T00:44:16.600Z,102129.58
2022-10-31T00:46:46.364Z,102126.45
2022-10-31T00:49:16.514Z,102129.78
2022-10-31T00:51:46.272Z,102127.03
2022-10-31T00:54:16.335Z,102125.53
2022-10-31T00:56:46.359Z,102124.89
2022-10-31T00:59:16.479Z,102127.45
2022-10-31T01:01:46.398Z,102130.75
2022-10-31T01:04:16.599Z,102128.27
2022-10-31T01:06:46.362Z,102126.52
2022-10-31T01:09:16.448Z,102120.72
2022-10-31T01:11:46.250Z,102116.41
2022-10-31T01:14:16.359Z,102119.08
2022-10-31T01:16:46.094Z,102114.96
2022-10-31T01:19:17.117Z,102126.26
2022-10-31T01:21:46.862Z,102133.06
2022-10-31T01:24:16.921Z,102126.41
2022-10-31T01:26:47.182Z,102134.12
2022-10-31T01:29:17.293Z,102129.00
2022-10-31T01:31:46.794Z,102123.18
2022-10-31T01:34:19.040Z,102115.89
2022-10-31T01:36:50.790Z,102109.23
2022-10-31T01:39:21.175Z,102109.20
2022-10-31T01:41:53.651Z,102098.45
2022-10-31T01:44:27.386Z,102095.05
2022-10-31T01:47:08.576Z,102102.38
2022-10-31T01:49:41.686Z,102093.92
2022-10-31T01:52:33.708Z,102101.58
2022-10-31T01:55:06.838Z,102112.23
2022-10-31T01:57:39.622Z,102114.57
2022-10-31T02:00:13.164Z,102111.06
2022-10-31T02:02:43.815Z,102113.72
2022-10-31T02:05:16.673Z,102108.56
2022-10-31T02:08:10.633Z,102110.38
2022-10-31T02:10:41.663Z,102116.98
2022-10-31T02:13:13.866Z,102117.19
2022-10-31T02:15:48.547Z,102109.01
2022-10-31T02:18:20.723Z,102112.88
2022-10-31T02:21:14.811Z,102113.92
2022-10-31T02:24:08.450Z,102112.35
2022-10-31T02:26:47.382Z,102106.09
2022-10-31T02:29:39.397Z,102113.52
2022-10-31T02:32:21.062Z,102111.95
2022-10-31T02:35:00.164Z,102103.39
2022-10-31T02:40:35.817Z,102098.96
2022-10-31T02:43:15.722Z,102098.12
2022-10-31T02:45:54.125Z,102102.47
2022-10-31T02:48:27.485Z,102097.30
2022-10-31T02:51:02.849Z,102099.22
2022-10-31T02:53:39.534Z,102100.59
2022-10-31T02:56:19.077Z,102100.59
2022-10-31T02:58:57.791Z,102102.87
2022-10-31T03:01:57.668Z,102099.19
2022-10-31T03:04:49.739Z,102108.05
2022-10-31T03:07:28.361Z,102106.14
2022-10-31T03:10:14.994Z,102111.63
2022-10-31T03:13:09.004Z,102099.20
2022-10-31T03:15:49.714Z,102098.97
2022-10-31T03:18:25.221Z,102096.98
2022-10-31T03:21:11.317Z,102105.59
2022-10-31T03:23:43.539Z,102100.80
2022-10-31T03:26:18.166Z,102108.95
2022-10-31T03:28:50.990Z,102113.52
2022-10-31T03:31:24.371Z,102105.59
2022-10-31T03:33:56.400Z,102113.69
2022-10-31T03:36:27.747Z,102113.69
2022-10-31T03:39:01.152Z,102108.95
2022-10-31T03:41:33.950Z,102103.05
2022-10-31T03:44:07.071Z,102106.52
2022-10-31T03:46:37.108Z,102105.59
2022-10-31T03:49:07.471Z,102114.50
2022-10-31T03:51:42.689Z,102115.97
2022-10-31T03:54:19.567Z,102115.97
2022-10-31T03:56:57.619Z,102114.08
2022-10-31T03:59:30.472Z,102111.66
2022-10-31T04:02:03.397Z,102105.34
2022-10-31T04:04:34.369Z,102110.63
2022-10-31T04:07:06.951Z,102108.37
2022-10-31T04:09:40.312Z,102113.59
2022-10-31T04:12:14.629Z,102105.95
2022-10-31T04:14:48.541Z,102109.16
2022-10-31T04:17:22.206Z,102113.03
2022-10-31T04:19:52.889Z,102114.72
2022-10-31T04:22:22.821Z,102105.14
2022-10-31T04:24:52.574Z,102105.25
2022-10-31T04:27:22.600Z,102100.21
2022-10-31T04:29:52.107Z,102101.58
2022-10-31T04:32:21.853Z,102100.15
2022-10-31T04:34:51.588Z,102095.06
2022-10-31T04:37:21.344Z,102099.39
2022-10-31T04:39:51.091Z,102110.03
2022-10-31T04:42:40.299Z,102099.85
2022-10-31T04:45:10.052Z,102099.20
2022-10-31T04:47:39.969Z,102098.24
2022-10-31T04:50:09.893Z,102099.20
2022-10-31T04:52:43.920Z,102096.74
2022-10-31T04:55:15.602Z,102104.63
2022-10-31T04:58:03.441Z,102100.21
2022-10-31T05:00:34.969Z,102096.13
2022-10-31T05:03:04.779Z,102096.22
2022-10-31T05:05:35.379Z,102098.39
2022-10-31T05:08:05.866Z,102100.95
2022-10-31T05:10:35.698Z,102094.85
2022-10-31T05:13:06.702Z,102090.36
2022-10-31T05:15:54.151Z,102088.62
2022-10-31T05:18:34.417Z,102086.73
2022-10-31T05:21:21.665Z,102084.95
2022-10-31T05:23:55.803Z,102077.87
2022-10-31T05:26:26.529Z,102075.65
2022-10-31T05:28:56.676Z,102075.42
2022-10-31T05:31:26.482Z,102077.20
2022-10-31T05:33:56.319Z,102081.98
2022-10-31T05:36:45.223Z,102079.23
2022-10-31T05:39:16.985Z,102076.03
2022-10-31T05:41:48.439Z,102081.39
2022-10-31T05:44:19.919Z,102081.94
2022-10-31T05:47:03.127Z,102085.61
2022-10-31T05:49:50.835Z,102084.70
2022-10-31T05:52:38.299Z,102084.70
2022-10-31T05:55:09.906Z,102088.09
2022-10-31T05:57:40.230Z,102089.47
2022-10-31T06:00:12.034Z,102082.70
2022-10-31T06:02:43.504Z,102077.67
2022-10-31T06:05:26.839Z,102077.67
2022-10-31T06:07:58.184Z,102076.66
2022-10-31T06:10:28.879Z,102074.64
2022-10-31T06:12:59.404Z,102067.98
2022-10-31T06:15:43.913Z,102069.30
2022-10-31T06:18:14.493Z,102067.41
2022-10-31T06:20:48.802Z,102070.15
2022-10-31T06:23:18.641Z,102068.53
2022-10-31T06:25:53.064Z,102069.70
2022-10-31T06:28:22.941Z,102075.50
2022-10-31T06:30:54.443Z,102077.78
2022-10-31T06:33:24.278Z,102077.31
2022-10-31T06:35:55.829Z,102075.17
2022-10-31T06:38:27.617Z,102074.47
2022-10-31T06:40:57.696Z,102074.14
2022-10-31T06:43:30.701Z,102070.41
2022-10-31T06:46:08.224Z,102073.43
2022-10-31T06:48:39.656Z,102075.17
2022-10-31T06:51:23.247Z,102079.04
2022-10-31T06:53:53.291Z,102080.45
2022-10-31T06:56:24.568Z,102081.23
2022-10-31T06:58:55.352Z,102082.02
2022-10-31T07:01:27.065Z,102085.27
2022-10-31T07:03:56.948Z,102084.70
2022-10-31T07:06:26.715Z,102088.22
2022-10-31T07:08:56.638Z,102081.63
2022-10-31T07:11:27.919Z,102083.33
2022-10-31T07:13:58.829Z,102079.53
2022-10-31T07:16:28.626Z,102081.07
2022-10-31T07:18:58.435Z,102081.07
2022-10-31T07:21:28.289Z,102079.81
2022-10-31T07:23:58.380Z,102081.25
2022-10-31T07:26:48.486Z,102071.88
2022-10-31T07:29:18.403Z,102069.93
2022-10-31T07:31:49.160Z,102072.28
2022-10-31T07:34:20.603Z,102072.28
2022-10-31T07:37:06.709Z,102073.41
2022-10-31T07:39:36.347Z,102067.78
2022-10-31T07:42:06.683Z,102076.94
2022-10-31T07:44:36.589Z,102072.03
2022-10-31T07:47:08.333Z,102076.86
2022-10-31T07:49:55.833Z,102070.17
2022-10-31T07:52:43.658Z,102073.77
2022-10-31T07:55:15.941Z,102073.52
2022-10-31T07:57:47.484Z,102078.87
2022-10-31T08:00:18.742Z,102084.08
2022-10-31T08:02:50.198Z,102092.44
2022-10-31T08:05:37.906Z,102091.17
2022-10-31T08:08:21.692Z,102090.24
2022-10-31T08:10:51.575Z,102090.24
2022-10-31T08:13:21.395Z,102093.86
2022-10-31T08:15:54.602Z,102094.56
2022-10-31T08:18:26.319Z,102098.99
2022-10-31T08:20:56.353Z,102091.84
2022-10-31T08:23:26.161Z,102091.30
2022-10-31T08:25:56.617Z,102089.83
2022-10-31T08:28:26.360Z,102088.04
2022-10-31T08:30:56.467Z,102083.30
2022-10-31T08:33:46.393Z,102080.17
2022-10-31T08:36:23.501Z,102080.33
2022-10-31T08:39:01.851Z,102081.17
2022-10-31T08:41:30.403Z,102081.95
2022-10-31T08:44:00.947Z,102082.84
2022-10-31T08:46:30.754Z,102078.70
2022-10-31T08:49:00.967Z,102066.85
2022-10-31T08:51:30.956Z,102065.95
2022-10-31T08:54:00.710Z,102068.27
2022-10-31T08:56:37.693Z,102061.39
2022-10-31T08:59:09.156Z,102054.20
2022-10-31T09:01:40.793Z,102054.61
2022-10-31T09:04:11.668Z,102053.30
2022-10-31T09:06:50.451Z,102054.78
2022-10-31T09:09:13.125Z,102061.36
2022-10-31T09:11:43.342Z,102064.41
2022-10-31T09:14:14.541Z,102055.30
2022-10-31T09:16:55.213Z,102046.73
2022-10-31T09:19:26.631Z,101999.29
2022-10-31T09:21:56.770Z,101999.29
2022-10-31T09:24:26.590Z,101992.86
2022-10-31T09:26:56.338Z,101992.86
2022-10-31T09:29:31.949Z,102017.82
2022-10-31T09:32:02.741Z,102008.03
2022-10-31T09:34:34.362Z,102008.03
2022-10-31T09:37:11.549Z,102021.84
2022-10-31T09:39:42.258Z,102024.05
2022-10-31T09:42:25.794Z,102020.80
2022-10-31T09:45:16.296Z,102022.08
2022-10-31T09:48:00.909Z,102023.00
2022-10-31T09:50:43.040Z,102043.67
2022-10-31T09:53:29.041Z,102026.45
2022-10-31T09:55:59.519Z,102015.38
2022-10-31T09:58:34.084Z,102006.50
2022-10-31T10:01:05.541Z,102013.19
2022-10-31T10:03:46.900Z,102020.94
2022-10-31T10:06:29.691Z,102000.97
2022-10-31T10:09:17.421Z,101974.80
2022-10-31T10:12:24.069Z,101974.80
2022-10-31T10:15:18.109Z,101980.95
2022-10-31T10:18:01.327Z,101984.42
2022-10-31T10:20:59.087Z,101984.42
2022-10-31T10:23:48.914Z,101984.23
2022-10-31T10:26:21.784Z,101987.95
2022-10-31T10:29:06.225Z,101972.14
2022-10-31T10:31:39.039Z,101981.60
2022-10-31T10:34:11.862Z,101979.45
2022-10-31T10:36:47.790Z,101975.50
2022-10-31T10:39:38.576Z,101966.64
2022-10-31T10:42:34.067Z,101954.12
2022-10-31T10:45:30.168Z,101946.73
2022-10-31T10:48:17.377Z,101941.97
2022-10-31T10:50:54.286Z,101939.41
2022-10-31T10:53:38.410Z,101911.56
2022-10-31T10:56:19.961Z,101911.56
2022-10-31T10:58:50.445Z,101914.26
2022-10-31T11:01:20.255Z,101916.19
2022-10-31T11:03:50.987Z,101913.66
2022-10-31T11:06:27.584Z,101908.09
2022-10-31T11:08:57.102Z,101897.63
2022-10-31T11:11:32.727Z,101902.73
2022-10-31T11:14:08.595Z,101897.92
2022-10-31T11:16:41.822Z,101888.02
2022-10-31T11:19:17.445Z,101891.44
2022-10-31T11:21:53.706Z,101897.76
2022-10-31T11:24:21.541Z,101890.17
2022-10-31T11:26:52.781Z,101869.61
2022-10-31T11:29:27.376Z,101869.16
2022-10-31T11:32:02.118Z,101867.33
2022-10-31T11:34:37.024Z,101857.50
2022-10-31T11:37:12.546Z,101853.03
2022-10-31T11:39:45.446Z,101843.19
2022-10-31T11:42:15.749Z,101853.13
2022-10-31T11:44:46.316Z,101841.22
2022-10-31T11:47:21.743Z,101845.47
2022-10-31T11:49:51.712Z,101828.71
2022-10-31T11:52:27.371Z,101811.88
2022-10-31T11:55:32.957Z,101806.41
2022-10-31T11:58:03.279Z,101804.89
2022-10-31T12:00:35.886Z,101805.71
2022-10-31T12:03:41.495Z,101796.25
2022-10-31T12:06:26.225Z,101793.58
2022-10-31T12:08:56.037Z,101788.36
2022-10-31T12:11:28.841Z,101780.26
2022-10-31T12:14:07.270Z,101783.77
2022-10-31T12:16:45.757Z,101785.40
2022-10-31T12:19:37.398Z,101772.77
2022-10-31T12:22:14.170Z,101763.27
2022-10-31T12:25:06.221Z,101761.45
2022-10-31T12:27:50.622Z,101750.46
2022-10-31T12:30:32.054Z,101715.68
2022-10-31T12:33:21.363Z,101715.68
2022-10-31T12:35:59.712Z,101717.59
2022-10-31T12:38:41.424Z,101678.95
2022-10-31T12:41:17.222Z,101678.95
2022-10-31T12:43:52.542Z,101695.08
2022-10-31T12:46:59.542Z,101689.91
2022-10-31T12:49:40.325Z,101682.80
2022-10-31T12:52:47.293Z,101670.30
2022-10-31T12:55:42.259Z,101663.94
2022-10-31T12:58:27.211Z,101655.50
2022-10-31T13:01:00.157Z,101645.70
2022-10-31T13:03:38.874Z,101643.02
2022-10-31T13:06:12.719Z,101635.30
2022-10-31T13:08:45.507Z,101633.40
2022-10-31T13:11:19.260Z,101601.20
2022-10-31T13:13:58.006Z,101601.20
2022-10-31T13:16:33.519Z,101612.22
2022-10-31T13:19:14.683Z,101612.33
2022-10-31T13:21:56.358Z,101605.52
2022-10-31T13:24:45.642Z,101598.67
2022-10-31T13:27:24.259Z,101598.67
2022-10-31T13:30:15.060Z,101586.03
2022-10-31T13:32:47.923Z,101580.31
2022-10-31T13:35:45.909Z,101574.81
2022-10-31T13:38:18.694Z,101577.51
2022-10-31T13:41:00.477Z,101564.54
2022-10-31T13:43:41.950Z,101564.54
2022-10-31T13:46:36.471Z,101562.69
2022-10-31T13:49:09.122Z,101558.85
2022-10-31T13:51:39.275Z,101555.69
2022-10-31T13:54:25.251Z,101560.03
2022-10-31T13:56:55.690Z,101527.12
2022-10-31T13:59:27.709Z,101527.12
2022-10-31T14:02:01.176Z,101537.27
2022-10-31T14:04:34.361Z,101539.89
2022-10-31T14:07:22.104Z,101536.83
2022-10-31T14:10:03.412Z,101538.17
2022-10-31T14:12:41.413Z,101531.98
2022-10-31T14:15:25.372Z,101525.59
2022-10-31T14:18:02.786Z,101523.62
2022-10-31T14:20:44.706Z,101517.30
2022-10-31T14:23:17.054Z,101512.91
2022-10-31T14:25:47.207Z,101504.68
2022-10-31T14:28:25.617Z,101496.84
2022-10-31T14:30:58.075Z,101493.34
2022-10-31T14:33:30.353Z,101484.16
2022-10-31T14:36:19.699Z,101484.16
2022-10-31T14:39:00.747Z,101475.70
2022-10-31T14:41:59.093Z,101476.34
2022-10-31T14:44:49.684Z,101471.21
2022-10-31T14:47:56.994Z,101449.64
2022-10-31T14:50:44.685Z,101449.64
2022-10-31T14:53:23.154Z,101462.33
2022-10-31T14:55:56.484Z,101463.75
2022-10-31T14:58:40.759Z,101451.25
2022-10-31T15:01:12.328Z,101450.88
2022-10-31T15:04:10.196Z,101445.18
2022-10-31T15:06:21.489Z,101443.25
2022-10-31T15:08:53.376Z,101444.89
2022-10-31T15:11:26.345Z,101439.05
2022-10-31T15:13:58.954Z,101440.20
2022-10-31T15:19:07.817Z,101425.73
2022-10-31T15:21:39.777Z,101422.62
2022-10-31T15:24:15.411Z,101425.39
2022-10-31T15:26:48.529Z,101416.32
2022-10-31T15:29:22.561Z,101410.89
2022-10-31T15:31:57.090Z,101405.11
2022-10-31T15:34:44.185Z,101398.63
2022-10-31T15:37:19.841Z,101393.86
2022-10-31T15:39:51.151Z,101379.59
2022-10-31T15:42:26.201Z,101376.41
2022-10-31T15:45:04.823Z,101338.53
2022-10-31T15:47:35.455Z,101370.55
2022-10-31T15:50:10.885Z,101361.20
2022-10-31T15:52:48.288Z,101358.91
2022-10-31T15:55:23.410Z,101356.73
2022-10-31T15:57:56.309Z,101359.20
2022-10-31T16:00:28.787Z,101354.27
2022-10-31T16:03:07.195Z,101332.69
2022-10-31T16:05:40.076Z,101332.69
2022-10-31T16:08:33.400Z,101349.67
2022-10-31T16:11:14.999Z,101343.48
2022-10-31T16:13:56.511Z,101340.19
2022-10-31T16:16:35.168Z,101336.48
2022-10-31T16:19:00.646Z,101332.92
2022-10-31T16:21:36.227Z,101332.58
2022-10-31T16:24:22.015Z,101330.72
2022-10-31T16:27:09.312Z,101332.11
2022-10-31T16:29:44.578Z,101335.61
2022-10-31T16:32:39.714Z,101335.06
2022-10-31T16:35:15.769Z,101322.89
2022-10-31T16:37:46.656Z,101331.25
2022-10-31T16:40:17.275Z,101324.95
2022-10-31T16:42:49.680Z,101324.33
2022-10-31T16:45:27.337Z,101324.52
2022-10-31T16:48:06.018Z,101319.00
2022-10-31T16:50:35.789Z,101311.72
2022-10-31T16:53:13.800Z,101319.35
2022-10-31T16:55:38.773Z,101308.72
2022-10-31T16:58:12.905Z,101316.98
2022-10-31T17:00:42.857Z,101308.94
2022-10-31T17:03:13.134Z,101311.25
2022-10-31T17:05:42.879Z,101306.99
2022-10-31T17:08:12.683Z,101287.19
2022-10-31T17:10:44.505Z,101287.19
2022-10-31T17:13:17.707Z,101298.07
2022-10-31T17:15:51.054Z,101301.29
2022-10-31T17:18:26.896Z,101298.13
2022-10-31T17:20:55.731Z,101288.31
2022-10-31T17:23:25.666Z,101289.84
2022-10-31T17:25:55.855Z,101294.40
2022-10-31T17:28:26.698Z,101294.40
2022-10-31T17:30:59.009Z,101283.38
2022-10-31T17:33:28.676Z,101273.91
2022-10-31T17:35:58.449Z,101253.39
2022-10-31T17:38:28.199Z,101253.39
2022-10-31T17:40:57.962Z,101271.34
2022-10-31T17:43:27.802Z,101270.02
2022-10-31T17:46:00.664Z,101265.59
2022-10-31T17:48:30.857Z,101265.59
2022-10-31T17:51:07.487Z,101264.42
2022-10-31T17:53:36.954Z,101261.42
2022-10-31T17:56:09.529Z,101261.86
2022-10-31T17:58:39.774Z,101256.14
2022-10-31T18:01:12.111Z,101238.97
2022-10-31T18:03:42.260Z,101238.97
2022-10-31T18:06:14.601Z,101242.17
2022-10-31T18:08:44.849Z,101243.84
2022-10-31T18:11:20.281Z,101227.95
2022-10-31T18:13:51.533Z,101220.52
2022-10-31T18:16:21.482Z,101224.30
2022-10-31T18:18:53.822Z,101213.72
2022-10-31T18:21:23.653Z,101222.03
2022-10-31T18:23:57.253Z,101216.57
2022-10-31T18:26:28.231Z,101220.84
2022-10-31T18:28:58.318Z,101220.44
2022-10-31T18:31:28.511Z,101224.74
2022-10-31T18:33:58.704Z,101223.84
2022-10-31T18:36:28.201Z,101234.27
2022-10-31T18:38:58.043Z,101232.12
2022-10-31T18:41:27.778Z,101232.64
2022-10-31T18:44:00.125Z,101228.23
2022-10-31T18:46:29.911Z,101222.48
2022-10-31T18:49:00.487Z,101204.30
2022-10-31T18:51:30.604Z,101206.75
2022-10-31T18:54:02.077Z,101194.03
2022-10-31T18:56:32.179Z,101191.62
2022-10-31T18:59:03.168Z,101193.64
2022-10-31T19:01:33.259Z,101206.08
2022-10-31T19:04:03.169Z,101193.08
2022-10-31T19:06:33.070Z,101196.43
2022-10-31T19:09:05.682Z,101196.43
2022-10-31T19:11:36.444Z,101208.83
2022-10-31T19:14:12.553Z,101195.35
2022-10-31T19:16:42.570Z,101201.39
2022-10-31T19:19:12.351Z,101204.01
2022-10-31T19:21:42.151Z,101206.70
2022-10-31T19:24:11.834Z,101195.83
2022-10-31T19:26:41.572Z,101202.23
2022-10-31T19:29:11.647Z,101208.31
2022-10-31T19:31:41.485Z,101195.11
2022-10-31T19:34:12.400Z,101188.98
2022-10-31T19:36:42.845Z,101187.75
2022-10-31T19:39:13.383Z,101182.81
2022-10-31T19:41:43.136Z,101180.60
2022-10-31T19:44:15.093Z,101179.52
2022-10-31T19:46:53.250Z,101185.86
2022-10-31T19:49:16.698Z,101180.52
2022-10-31T19:51:46.437Z,101181.20
2022-10-31T19:54:16.024Z,101178.14
2022-10-31T19:56:45.595Z,101178.02
2022-10-31T19:59:15.401Z,101176.65
2022-10-31T20:01:45.290Z,101172.50
2022-10-31T20:04:14.993Z,101172.95
2022-10-31T20:06:44.790Z,101171.75
2022-10-31T20:09:15.294Z,101166.91
2022-10-31T20:11:46.058Z,101168.83
2022-10-31T20:14:17.654Z,101167.98
2022-10-31T20:16:47.814Z,101167.02
2022-10-31T20:19:17.315Z,101158.47
2022-10-31T20:21:47.510Z,101154.95
2022-10-31T20:24:17.257Z,101161.58
2022-10-31T20:26:47.473Z,101148.97
2022-10-31T20:29:17.248Z,101154.19
2022-10-31T20:31:48.130Z,101154.19
2022-10-31T20:34:17.850Z,101140.27
2022-10-31T20:36:48.251Z,101136.69
2022-10-31T20:39:18.055Z,101134.56
2022-10-31T20:41:48.627Z,101134.16
2022-10-31T20:44:18.356Z,101133.33
2022-10-31T20:46:48.122Z,101135.69
2022-10-31T20:49:17.878Z,101135.15
2022-10-31T20:51:47.927Z,101131.19
2022-10-31T20:54:18.955Z,101135.64
2022-10-31T20:56:49.199Z,101132.96
2022-10-31T20:59:19.795Z,101129.52
2022-10-31T21:01:49.759Z,101118.91
2022-10-31T21:04:19.686Z,101123.16
2022-10-31T21:06:49.903Z,101112.19
2022-10-31T21:09:19.711Z,101112.58
2022-10-31T21:11:49.485Z,101114.02
2022-10-31T21:14:19.126Z,101109.27
2022-10-31T21:16:48.868Z,101095.89
2022-10-31T21:19:18.617Z,101100.55
2022-10-31T21:21:48.349Z,101093.85
2022-10-31T21:24:20.746Z,101095.08
2022-10-31T21:26:53.083Z,101091.55
2022-10-31T21:29:23.047Z,101087.42
2022-10-31T21:31:52.741Z,101087.42
2022-10-31T21:34:22.272Z,101083.77
2022-10-31T21:36:52.044Z,101085.28
2022-10-31T21:39:21.868Z,101081.27
2022-10-31T21:41:51.696Z,101072.25
2022-10-31T21:44:21.472Z,101073.08
2022-10-31T21:46:51.224Z,101063.17
2022-10-31T21:49:21.052Z,101064.00
2022-10-31T21:51:50.775Z,101062.41
2022-10-31T21:54:29.991Z,101062.56
2022-10-31T21:57:00.734Z,101052.63
2022-10-31T21:59:31.210Z,101043.93
2022-10-31T22:02:01.425Z,101043.93
2022-10-31T22:04:31.669Z,101047.12
2022-10-31T22:07:01.418Z,101036.78
2022-10-31T22:09:31.165Z,101039.19
2022-10-31T22:12:03.007Z,101031.83
2022-10-31T22:14:33.042Z,101035.74
2022-10-31T22:17:02.813Z,101037.80
2022-10-31T22:19:32.278Z,101037.12
2022-10-31T22:22:02.406Z,101029.25
2022-10-31T22:24:32.150Z,101023.66
2022-10-31T22:27:01.988Z,101028.33
2022-10-31T22:29:31.736Z,101028.32
2022-10-31T22:32:02.902Z,101023.42
2022-10-31T22:34:32.613Z,101034.42
2022-10-31T22:37:02.368Z,101033.58
2022-10-31T22:39:32.129Z,101027.10
2022-10-31T22:42:01.954Z,101042.06
2022-10-31T22:44:31.695Z,101033.02
2022-10-31T22:47:01.756Z,101028.00
2022-10-31T22:49:31.579Z,101023.22
2022-10-31T22:52:03.031Z,101019.16
2022-10-31T22:54:33.076Z,101017.00
2022-10-31T22:57:02.827Z,101014.70
2022-10-31T22:59:32.566Z,101016.64
2022-10-31T23:02:03.113Z,101015.53
2022-10-31T23:04:34.014Z,101009.67
2022-10-31T23:07:04.333Z,101006.33
2022-10-31T23:09:34.374Z,100992.82
2022-10-31T23:12:24.209Z,100989.48
2022-10-31T23:14:53.935Z,100990.61
2022-10-31T23:17:23.679Z,100978.45
2022-10-31T23:19:53.722Z,100971.58
2022-10-31T23:22:23.179Z,100979.52
2022-10-31T23:24:52.980Z,100980.74
2022-10-31T23:27:24.962Z,100980.74
2022-10-31T23:29:57.179Z,100973.19
2022-10-31T23:32:32.030Z,100979.25
2022-10-31T23:35:05.050Z,100982.27
2022-10-31T23:37:37.009Z,100970.44
2022-10-31T23:40:08.950Z,100972.89
2022-10-31T23:42:38.746Z,100974.25
2022-10-31T23:45:09.057Z,100963.35
2022-10-31T23:47:43.196Z,100966.98
2022-10-31T23:50:11.324Z,100967.88
2022-10-31T23:52:41.090Z,100964.62
2022-10-31T23:55:11.702Z,100953.53
2022-10-31T23:57:41.441Z,100950.73
